sensor_id;sensor_type;location;lat;lon;timestamp;pressure;altitude;pressure_sealevel;temperature;humidity
46954;BME280;32707;43.886;12.874;2022-07-03T00:01:24;101497.72;;;24.50;55.32
46954;BME280;32707;43.886;12.874;2022-07-03T00:03:53;101502.22;;;24.51;55.28
46954;BME280;32707;43.886;12.874;2022-07-03T00:06:19;101510.03;;;24.54;55.26
46954;BME280;32707;43.886;12.874;2022-07-03T00:08:45;101505.56;;;24.53;55.24
46954;BME280;32707;43.886;12.874;2022-07-03T00:11:10;101507.13;;;24.51;55.52
46954;BME280;32707;43.886;12.874;2022-07-03T00:13:36;101512.81;;;24.47;55.51
46954;BME280;32707;43.886;12.874;2022-07-03T00:16:02;101501.34;;;24.43;55.64
46954;BME280;32707;43.886;12.874;2022-07-03T00:18:28;101512.00;;;24.47;55.47
46954;BME280;32707;43.886;12.874;2022-07-03T00:21:00;101502.22;;;24.48;55.58
46954;BME280;32707;43.886;12.874;2022-07-03T00:24:16;101502.22;;;24.48;55.58
46954;BME280;32707;43.886;12.874;2022-07-03T00:26:15;101502.63;;;24.46;55.47
46954;BME280;32707;43.886;12.874;2022-07-03T00:28:44;101499.34;;;24.44;55.66
46954;BME280;32707;43.886;12.874;2022-07-03T00:31:13;101505.44;;;24.42;55.63
46954;BME280;32707;43.886;12.874;2022-07-03T00:33:41;101504.19;;;24.40;55.72
46954;BME280;32707;43.886;12.874;2022-07-03T00:36:08;101510.72;;;24.37;55.85
46954;BME280;32707;43.886;12.874;2022-07-03T00:38:34;101517.25;;;24.34;55.94
46954;BME280;32707;43.886;12.874;2022-07-03T00:41:02;101507.44;;;24.31;55.92
46954;BME280;32707;43.886;12.874;2022-07-03T00:43:28;101516.78;;;24.28;56.07
46954;BME280;32707;43.886;12.874;2022-07-03T00:46:06;101510.63;;;24.22;56.16
46954;BME280;32707;43.886;12.874;2022-07-03T00:48:36;101508.16;;;24.21;56.07
46954;BME280;32707;43.886;12.874;2022-07-03T00:51:02;101506.09;;;24.14;56.23
46954;BME280;32707;43.886;12.874;2022-07-03T00:53:36;101508.94;;;24.11;56.37
46954;BME280;32707;43.886;12.874;2022-07-03T00:56:04;101517.88;;;24.05;56.42
46954;BME280;32707;43.886;12.874;2022-07-03T00:58:30;101518.66;;;23.99;56.56
46954;BME280;32707;43.886;12.874;2022-07-03T01:00:56;101515.75;;;23.95;56.82
46954;BME280;32707;43.886;12.874;2022-07-03T01:03:28;101513.31;;;23.94;56.85
46954;BME280;32707;43.886;12.874;2022-07-03T01:06:03;101511.66;;;23.93;56.70
46954;BME280;32707;43.886;12.874;2022-07-03T01:08:49;101508.38;;;23.91;56.73
46954;BME280;32707;43.886;12.874;2022-07-03T01:16:58;101508.00;;;23.96;56.66
46954;BME280;32707;43.886;12.874;2022-07-03T01:19:35;101508.00;;;23.96;56.55
46954;BME280;32707;43.886;12.874;2022-07-03T01:30:05;101503.44;;;23.84;56.77
46954;BME280;32707;43.886;12.874;2022-07-03T01:32:37;101511.59;;;23.85;56.77
46954;BME280;32707;43.886;12.874;2022-07-03T01:35:04;101502.19;;;23.85;56.89
46954;BME280;32707;43.886;12.874;2022-07-03T01:37:34;101501.78;;;23.83;56.71
46954;BME280;32707;43.886;12.874;2022-07-03T01:40:05;101499.25;;;23.78;56.98
46954;BME280;32707;43.886;12.874;2022-07-03T01:42:35;101494.78;;;23.77;57.15
46954;BME280;32707;43.886;12.874;2022-07-03T01:45:08;101503.34;;;23.77;57.10
46954;BME280;32707;43.886;12.874;2022-07-03T01:47:35;101502.09;;;23.78;56.93
46954;BME280;32707;43.886;12.874;2022-07-03T01:50:03;101502.91;;;23.75;57.09
46954;BME280;32707;43.886;12.874;2022-07-03T01:52:30;101510.22;;;23.72;57.06
46954;BME280;32707;43.886;12.874;2022-07-03T01:55:00;101495.91;;;23.68;57.17
46954;BME280;32707;43.886;12.874;2022-07-03T01:57:48;101497.53;;;23.66;57.31
46954;BME280;32707;43.886;12.874;2022-07-03T02:00:20;101494.22;;;23.60;57.14
46954;BME280;32707;43.886;12.874;2022-07-03T02:02:54;101488.47;;;23.57;57.43
46954;BME280;32707;43.886;12.874;2022-07-03T02:10:57;101488.81;;;23.52;57.30
46954;BME280;32707;43.886;12.874;2022-07-03T02:13:28;101490.91;;;23.55;57.23
46954;BME280;32707;43.886;12.874;2022-07-03T02:15:58;101487.22;;;23.54;57.20
46954;BME280;32707;43.886;12.874;2022-07-03T02:18:36;101491.28;;;23.53;57.20
46954;BME280;32707;43.886;12.874;2022-07-03T02:21:19;101486.34;;;23.46;57.17
46954;BME280;32707;43.886;12.874;2022-07-03T02:26:39;101481.34;;;23.36;57.35
46954;BME280;32707;43.886;12.874;2022-07-03T02:29:32;101491.06;;;23.28;57.44
46954;BME280;32707;43.886;12.874;2022-07-03T02:32:00;101497.88;;;23.20;57.46
46954;BME280;32707;43.886;12.874;2022-07-03T02:34:30;101486.75;;;23.07;57.97
46954;BME280;32707;43.886;12.874;2022-07-03T02:36:59;101489.94;;;23.02;58.00
46954;BME280;32707;43.886;12.874;2022-07-03T02:39:41;101493.09;;;22.94;58.22
46954;BME280;32707;43.886;12.874;2022-07-03T02:42:19;101485.72;;;22.89;58.31
46954;BME280;32707;43.886;12.874;2022-07-03T02:44:52;101482.00;;;22.85;58.12
46954;BME280;32707;43.886;12.874;2022-07-03T02:50:06;101477.34;;;22.69;58.68
46954;BME280;32707;43.886;12.874;2022-07-03T02:55:43;101484.53;;;22.60;59.11
46954;BME280;32707;43.886;12.874;2022-07-03T03:03:50;101489.38;;;22.56;58.90
46954;BME280;32707;43.886;12.874;2022-07-03T03:06:23;101494.31;;;22.59;58.78
46954;BME280;32707;43.886;12.874;2022-07-03T03:09:14;101493.13;;;22.63;59.03
46954;BME280;32707;43.886;12.874;2022-07-03T03:11:45;101491.94;;;22.64;58.63
46954;BME280;32707;43.886;12.874;2022-07-03T03:14:13;101498.06;;;22.66;58.67
46954;BME280;32707;43.886;12.874;2022-07-03T03:16:47;101486.66;;;22.66;58.53
46954;BME280;32707;43.886;12.874;2022-07-03T03:19:14;101498.50;;;22.68;58.56
46954;BME280;32707;43.886;12.874;2022-07-03T03:21:57;101493.59;;;22.69;58.50
46954;BME280;32707;43.886;12.874;2022-07-03T03:24:23;101505.38;;;22.64;58.58
46954;BME280;32707;43.886;12.874;2022-07-03T03:26:50;101510.25;;;22.63;58.56
46954;BME280;32707;43.886;12.874;2022-07-03T03:29:18;101509.81;;;22.61;58.60
46954;BME280;32707;43.886;12.874;2022-07-03T03:31:43;101503.63;;;22.56;58.63
46954;BME280;32707;43.886;12.874;2022-07-03T03:34:09;101508.47;;;22.51;58.85
46954;BME280;32707;43.886;12.874;2022-07-03T03:36:35;101505.19;;;22.49;58.87
46954;BME280;32707;43.886;12.874;2022-07-03T03:39:03;101501.78;;;22.40;58.90
46954;BME280;32707;43.886;12.874;2022-07-03T03:41:30;101505.72;;;22.28;59.28
46954;BME280;32707;43.886;12.874;2022-07-03T03:43:55;101496.72;;;22.26;59.37
46954;BME280;32707;43.886;12.874;2022-07-03T03:46:20;101505.56;;;22.21;59.43
46954;BME280;32707;43.886;12.874;2022-07-03T03:48:47;101504.31;;;22.19;59.49
46954;BME280;32707;43.886;12.874;2022-07-03T03:51:13;101505.88;;;22.16;59.67
46954;BME280;32707;43.886;12.874;2022-07-03T03:53:39;101513.25;;;22.17;59.49
46954;BME280;32707;43.886;12.874;2022-07-03T03:58:33;101500.97;;;22.13;59.63
46954;BME280;32707;43.886;12.874;2022-07-03T04:01:01;101502.59;;;22.14;59.50
46954;BME280;32707;43.886;12.874;2022-07-03T04:03:27;101510.84;;;22.19;59.52
46954;BME280;32707;43.886;12.874;2022-07-03T04:05:53;101509.66;;;22.24;59.28
46954;BME280;32707;43.886;12.874;2022-07-03T04:08:20;101507.38;;;22.33;59.20
46954;BME280;32707;43.886;12.874;2022-07-03T04:10:47;101501.75;;;22.37;58.99
46954;BME280;32707;43.886;12.874;2022-07-03T04:13:13;101505.94;;;22.46;58.85
46954;BME280;32707;43.886;12.874;2022-07-03T04:15:39;101503.69;;;22.59;58.46
46954;BME280;32707;43.886;12.874;2022-07-03T04:18:07;101509.91;;;22.68;58.21
46954;BME280;32707;43.886;12.874;2022-07-03T04:20:33;101514.47;;;22.77;58.09
46954;BME280;32707;43.886;12.874;2022-07-03T04:23:03;101508.75;;;22.73;58.20
46954;BME280;32707;43.886;12.874;2022-07-03T04:25:31;101510.91;;;22.83;58.03
46954;BME280;32707;43.886;12.874;2022-07-03T04:28:00;101501.16;;;22.88;57.92
46954;BME280;32707;43.886;12.874;2022-07-03T04:30:26;101507.34;;;22.90;57.76
46954;BME280;32707;43.886;12.874;2022-07-03T04:32:52;101502.91;;;22.96;57.78
46954;BME280;32707;43.886;12.874;2022-07-03T04:35:21;101513.94;;;22.98;57.60
46954;BME280;32707;43.886;12.874;2022-07-03T04:40:27;101504.31;;;23.09;57.33
46954;BME280;32707;43.886;12.874;2022-07-03T04:42:56;101512.53;;;23.15;57.14
46954;BME280;32707;43.886;12.874;2022-07-03T04:45:21;101504.47;;;23.24;57.08
46954;BME280;32707;43.886;12.874;2022-07-03T04:47:47;101515.59;;;23.36;56.57
46954;BME280;32707;43.886;12.874;2022-07-03T04:50:13;101523.47;;;23.46;56.64
46954;BME280;32707;43.886;12.874;2022-07-03T04:52:39;101515.44;;;23.63;56.07
46954;BME280;32707;43.886;12.874;2022-07-03T04:55:05;101517.19;;;23.75;56.06
46954;BME280;32707;43.886;12.874;2022-07-03T04:57:32;101518.50;;;23.81;55.82
46954;BME280;32707;43.886;12.874;2022-07-03T04:59:58;101516.03;;;23.79;55.83
46954;BME280;32707;43.886;12.874;2022-07-03T05:02:27;101511.22;;;23.91;55.57
46954;BME280;32707;43.886;12.874;2022-07-03T05:04:52;101521.91;;;23.97;55.33
46954;BME280;32707;43.886;12.874;2022-07-03T05:07:18;101531.28;;;23.98;55.46
46954;BME280;32707;43.886;12.874;2022-07-03T05:09:43;101525.19;;;23.99;55.50
46954;BME280;32707;43.886;12.874;2022-07-03T05:12:09;101516.69;;;24.10;55.31
46954;BME280;32707;43.886;12.874;2022-07-03T05:14:34;101518.78;;;24.20;54.90
46954;BME280;32707;43.886;12.874;2022-07-03T05:17:00;101511.88;;;24.21;54.61
46954;BME280;32707;43.886;12.874;2022-07-03T05:19:25;101521.34;;;24.33;54.62
46954;BME280;32707;43.886;12.874;2022-07-03T05:21:54;101520.19;;;24.48;54.37
46954;BME280;32707;43.886;12.874;2022-07-03T05:24:19;101525.22;;;24.66;54.14
46954;BME280;32707;43.886;12.874;2022-07-03T05:26:44;101526.91;;;24.81;53.75
46954;BME280;32707;43.886;12.874;2022-07-03T05:29:10;101529.41;;;24.90;53.66
46954;BME280;32707;43.886;12.874;2022-07-03T05:31:35;101522.91;;;25.03;53.30
46954;BME280;32707;43.886;12.874;2022-07-03T05:34:01;101520.91;;;25.08;53.33
46954;BME280;32707;43.886;12.874;2022-07-03T05:36:26;101518.03;;;25.08;53.34
46954;BME280;32707;43.886;12.874;2022-07-03T05:38:52;101527.44;;;25.08;53.36
46954;BME280;32707;43.886;12.874;2022-07-03T05:41:36;101519.75;;;25.27;53.20
46954;BME280;32707;43.886;12.874;2022-07-03T05:44:01;101519.34;;;25.46;52.70
46954;BME280;32707;43.886;12.874;2022-07-03T05:46:27;101514.84;;;25.56;52.25
46954;BME280;32707;43.886;12.874;2022-07-03T05:48:52;101526.75;;;25.72;52.05
46954;BME280;32707;43.886;12.874;2022-07-03T05:51:18;101527.16;;;25.82;51.98
46954;BME280;32707;43.886;12.874;2022-07-03T05:53:43;101520.22;;;25.75;52.07
46954;BME280;32707;43.886;12.874;2022-07-03T05:56:08;101523.47;;;25.77;51.97
46954;BME280;32707;43.886;12.874;2022-07-03T05:58:34;101531.25;;;25.91;51.87
46954;BME280;32707;43.886;12.874;2022-07-03T06:00:59;101537.81;;;26.10;51.72
46954;BME280;32707;43.886;12.874;2022-07-03T06:03:25;101532.09;;;26.21;51.13
46954;BME280;32707;43.886;12.874;2022-07-03T06:05:50;101534.50;;;26.33;50.81
46954;BME280;32707;43.886;12.874;2022-07-03T06:08:16;101528.34;;;26.45;50.73
46954;BME280;32707;43.886;12.874;2022-07-03T06:10:41;101527.88;;;26.54;50.45
46954;BME280;32707;43.886;12.874;2022-07-03T06:13:07;101524.59;;;26.66;50.41
46954;BME280;32707;43.886;12.874;2022-07-03T06:15:33;101534.00;;;26.74;50.11
46954;BME280;32707;43.886;12.874;2022-07-03T06:17:58;101529.84;;;26.89;49.79
46954;BME280;32707;43.886;12.874;2022-07-03T06:20:24;101535.91;;;27.09;49.38
46954;BME280;32707;43.886;12.874;2022-07-03T06:22:49;101528.44;;;27.26;48.88
46954;BME280;32707;43.886;12.874;2022-07-03T06:25:15;101525.53;;;27.37;49.02
46954;BME280;32707;43.886;12.874;2022-07-03T06:27:41;101529.09;;;27.56;48.46
46954;BME280;32707;43.886;12.874;2022-07-03T06:30:08;101533.09;;;27.69;48.03
46954;BME280;32707;43.886;12.874;2022-07-03T06:32:34;101528.81;;;27.95;47.59
46954;BME280;32707;43.886;12.874;2022-07-03T06:34:59;101518.72;;;28.18;47.02
46954;BME280;32707;43.886;12.874;2022-07-03T06:37:25;101526.81;;;28.30;46.80
46954;BME280;32707;43.886;12.874;2022-07-03T06:39:50;101524.13;;;28.50;46.51
46954;BME280;32707;43.886;12.874;2022-07-03T06:42:19;101524.59;;;28.79;45.87
46954;BME280;32707;43.886;12.874;2022-07-03T06:44:45;101534.22;;;29.00;45.55
46954;BME280;32707;43.886;12.874;2022-07-03T06:47:10;101525.47;;;29.07;45.24
46954;BME280;32707;43.886;12.874;2022-07-03T06:49:36;101520.69;;;29.27;44.97
46954;BME280;32707;43.886;12.874;2022-07-03T06:52:02;101519.94;;;29.51;44.37
46954;BME280;32707;43.886;12.874;2022-07-03T06:54:27;101520.38;;;29.76;43.93
46954;BME280;32707;43.886;12.874;2022-07-03T06:56:55;101520.03;;;29.98;43.80
46954;BME280;32707;43.886;12.874;2022-07-03T06:59:23;101523.38;;;30.16;43.62
46954;BME280;32707;43.886;12.874;2022-07-03T07:01:49;101527.91;;;30.41;43.16
46954;BME280;32707;43.886;12.874;2022-07-03T07:04:14;101521.84;;;30.55;42.62
46954;BME280;32707;43.886;12.874;2022-07-03T07:06:40;101522.44;;;30.67;42.60
46954;BME280;32707;43.886;12.874;2022-07-03T07:09:05;101515.69;;;30.73;41.99
46954;BME280;32707;43.886;12.874;2022-07-03T07:11:31;101509.78;;;30.80;41.99
46954;BME280;32707;43.886;12.874;2022-07-03T07:13:56;101509.41;;;30.98;41.92
46954;BME280;32707;43.886;12.874;2022-07-03T07:16:22;101502.31;;;31.19;41.37
46954;BME280;32707;43.886;12.874;2022-07-03T07:18:47;101510.22;;;31.35;41.34
46954;BME280;32707;43.886;12.874;2022-07-03T07:21:13;101514.84;;;31.49;40.67
46954;BME280;32707;43.886;12.874;2022-07-03T07:23:38;101508.53;;;31.54;40.70
46954;BME280;32707;43.886;12.874;2022-07-03T07:26:04;101511.72;;;31.76;40.22
46954;BME280;32707;43.886;12.874;2022-07-03T07:28:30;101510.63;;;32.03;39.82
46954;BME280;32707;43.886;12.874;2022-07-03T07:30:56;101506.34;;;32.24;39.32
46954;BME280;32707;43.886;12.874;2022-07-03T07:33:23;101509.44;;;32.46;39.13
46954;BME280;32707;43.886;12.874;2022-07-03T07:35:48;101503.03;;;32.68;38.80
46954;BME280;32707;43.886;12.874;2022-07-03T07:38:14;101503.53;;;32.79;38.66
46954;BME280;32707;43.886;12.874;2022-07-03T07:40:42;101498.38;;;33.00;38.27
46954;BME280;32707;43.886;12.874;2022-07-03T07:43:08;101495.06;;;33.14;38.15
46954;BME280;32707;43.886;12.874;2022-07-03T07:45:36;101499.34;;;33.35;37.57
46954;BME280;32707;43.886;12.874;2022-07-03T07:48:02;101505.94;;;33.48;37.45
46954;BME280;32707;43.886;12.874;2022-07-03T07:50:28;101505.47;;;33.63;37.37
46954;BME280;32707;43.886;12.874;2022-07-03T07:52:53;101508.53;;;33.72;37.21
46954;BME280;32707;43.886;12.874;2022-07-03T07:55:19;101511.19;;;33.79;36.79
46954;BME280;32707;43.886;12.874;2022-07-03T07:57:46;101502.66;;;33.98;36.76
46954;BME280;32707;43.886;12.874;2022-07-03T08:00:14;101499.25;;;34.12;36.29
46954;BME280;32707;43.886;12.874;2022-07-03T08:02:41;101496.66;;;34.27;35.99
46954;BME280;32707;43.886;12.874;2022-07-03T08:05:25;101497.81;;;34.52;35.80
46954;BME280;32707;43.886;12.874;2022-07-03T08:08:16;101488.81;;;34.72;35.12
46954;BME280;32707;43.886;12.874;2022-07-03T08:10:47;101491.63;;;34.84;35.41
46954;BME280;32707;43.886;12.874;2022-07-03T08:13:16;101486.78;;;35.13;35.01
46954;BME280;32707;43.886;12.874;2022-07-03T08:15:46;101494.25;;;35.54;34.09
46954;BME280;32707;43.886;12.874;2022-07-03T08:18:14;101497.09;;;35.86;33.50
46954;BME280;32707;43.886;12.874;2022-07-03T08:20:40;101497.94;;;36.14;32.96
46954;BME280;32707;43.886;12.874;2022-07-03T08:23:09;101488.72;;;36.43;32.94
46954;BME280;32707;43.886;12.874;2022-07-03T08:25:35;101496.81;;;36.76;32.53
46954;BME280;32707;43.886;12.874;2022-07-03T08:28:00;101500.75;;;37.25;31.90
46954;BME280;32707;43.886;12.874;2022-07-03T08:30:26;101502.03;;;37.66;31.36
46954;BME280;32707;43.886;12.874;2022-07-03T08:32:54;101495.72;;;37.92;31.04
46954;BME280;32707;43.886;12.874;2022-07-03T08:35:20;101495.72;;;38.31;30.71
46954;BME280;32707;43.886;12.874;2022-07-03T08:37:46;101485.16;;;38.87;29.90
46954;BME280;32707;43.886;12.874;2022-07-03T08:40:16;101486.50;;;39.37;29.47
46954;BME280;32707;43.886;12.874;2022-07-03T08:42:46;101476.97;;;39.92;28.85
46954;BME280;32707;43.886;12.874;2022-07-03T08:45:16;101481.06;;;40.41;28.26
46954;BME280;32707;43.886;12.874;2022-07-03T08:47:43;101473.63;;;40.72;27.82
46954;BME280;32707;43.886;12.874;2022-07-03T08:50:13;101472.78;;;41.24;27.46
46954;BME280;32707;43.886;12.874;2022-07-03T08:52:39;101485.13;;;41.71;27.04
46954;BME280;32707;43.886;12.874;2022-07-03T08:55:06;101482.91;;;42.09;26.57
46954;BME280;32707;43.886;12.874;2022-07-03T08:57:32;101477.97;;;42.49;26.03
46954;BME280;32707;43.886;12.874;2022-07-03T09:00:02;101471.59;;;42.85;25.11
46954;BME280;32707;43.886;12.874;2022-07-03T09:02:30;101471.38;;;43.00;24.91
46954;BME280;32707;43.886;12.874;2022-07-03T09:04:57;101477.66;;;42.42;25.22
46954;BME280;32707;43.886;12.874;2022-07-03T09:07:24;101469.88;;;42.22;25.68
46954;BME280;32707;43.886;12.874;2022-07-03T09:09:51;101471.84;;;42.59;24.82
46954;BME280;32707;43.886;12.874;2022-07-03T09:12:17;101467.34;;;42.97;24.50
46954;BME280;32707;43.886;12.874;2022-07-03T09:14:43;101471.34;;;43.34;23.88
46954;BME280;32707;43.886;12.874;2022-07-03T09:17:10;101462.22;;;43.43;23.51
46954;BME280;32707;43.886;12.874;2022-07-03T09:19:43;101469.72;;;43.55;23.44
46954;BME280;32707;43.886;12.874;2022-07-03T09:24:48;101479.91;;;43.15;24.74
46954;BME280;32707;43.886;12.874;2022-07-03T09:27:20;101476.72;;;42.96;24.97
46954;BME280;32707;43.886;12.874;2022-07-03T09:30:11;101485.00;;;42.91;25.07
46954;BME280;32707;43.886;12.874;2022-07-03T09:38:03;101482.56;;;42.67;25.47
46954;BME280;32707;43.886;12.874;2022-07-03T09:43:13;101483.41;;;42.96;25.55
46954;BME280;32707;43.886;12.874;2022-07-03T09:48:26;101477.19;;;43.51;24.89
46954;BME280;32707;43.886;12.874;2022-07-03T09:56:09;101497.53;;;43.71;25.07
46954;BME280;32707;43.886;12.874;2022-07-03T09:58:35;101488.19;;;43.56;25.11
46954;BME280;32707;43.886;12.874;2022-07-03T10:01:18;101481.47;;;43.61;25.22
46954;BME280;32707;43.886;12.874;2022-07-03T10:03:46;101477.41;;;43.69;24.91
46954;BME280;32707;43.886;12.874;2022-07-03T10:06:13;101494.34;;;43.58;25.01
46954;BME280;32707;43.886;12.874;2022-07-03T10:08:39;101488.75;;;43.37;25.40
46954;BME280;32707;43.886;12.874;2022-07-03T10:11:05;101489.00;;;43.17;25.28
46954;BME280;32707;43.886;12.874;2022-07-03T10:13:33;101491.69;;;43.09;25.50
46954;BME280;32707;43.886;12.874;2022-07-03T10:15:59;101483.91;;;43.11;25.19
46954;BME280;32707;43.886;12.874;2022-07-03T10:18:29;101486.34;;;43.07;25.11
46954;BME280;32707;43.886;12.874;2022-07-03T10:20:57;101482.06;;;42.97;25.03
46954;BME280;32707;43.886;12.874;2022-07-03T10:23:24;101484.97;;;42.86;25.15
46954;BME280;32707;43.886;12.874;2022-07-03T10:25:52;101478.56;;;42.70;25.19
46954;BME280;32707;43.886;12.874;2022-07-03T10:28:19;101478.00;;;42.78;25.15
46954;BME280;32707;43.886;12.874;2022-07-03T10:30:47;101476.72;;;43.01;24.71
46954;BME280;32707;43.886;12.874;2022-07-03T10:33:13;101479.13;;;43.14;24.62
46954;BME280;32707;43.886;12.874;2022-07-03T10:35:41;101479.66;;;43.01;24.91
46954;BME280;32707;43.886;12.874;2022-07-03T10:41:07;101459.31;;;42.98;24.66
46954;BME280;32707;43.886;12.874;2022-07-03T10:43:54;101470.03;;;43.01;24.91
46954;BME280;32707;43.886;12.874;2022-07-03T10:46:41;101467.09;;;43.12;24.58
46954;BME280;32707;43.886;12.874;2022-07-03T10:49:07;101476.44;;;43.05;24.45
46954;BME280;32707;43.886;12.874;2022-07-03T10:54:26;101457.16;;;43.26;24.16
46954;BME280;32707;43.886;12.874;2022-07-03T11:07:26;101453.09;;;43.52;23.45
46954;BME280;32707;43.886;12.874;2022-07-03T11:20:34;101435.78;;;43.03;24.27
46954;BME280;32707;43.886;12.874;2022-07-03T11:25:49;101442.72;;;42.95;24.50
46954;BME280;32707;43.886;12.874;2022-07-03T11:34:00;101437.66;;;42.84;24.80
46954;BME280;32707;43.886;12.874;2022-07-03T11:36:33;101428.00;;;43.00;24.42
46954;BME280;32707;43.886;12.874;2022-07-03T11:44:03;101437.41;;;42.99;24.39
46954;BME280;32707;43.886;12.874;2022-07-03T11:46:31;101420.00;;;42.84;24.55
46954;BME280;32707;43.886;12.874;2022-07-03T11:51:42;101426.34;;;42.31;25.36
46954;BME280;32707;43.886;12.874;2022-07-03T11:54:14;101426.25;;;42.03;25.54
46954;BME280;32707;43.886;12.874;2022-07-03T11:56:40;101426.34;;;41.66;25.60
46954;BME280;32707;43.886;12.874;2022-07-03T11:59:06;101415.53;;;41.08;26.50
46954;BME280;32707;43.886;12.874;2022-07-03T12:01:36;101403.72;;;40.97;26.76
46954;BME280;32707;43.886;12.874;2022-07-03T12:06:34;101394.38;;;40.35;27.04
46954;BME280;32707;43.886;12.874;2022-07-03T12:09:00;101397.72;;;40.01;27.44
46954;BME280;32707;43.886;12.874;2022-07-03T12:11:25;101399.47;;;39.73;27.21
46954;BME280;32707;43.886;12.874;2022-07-03T12:13:51;101400.78;;;39.51;27.95
46954;BME280;32707;43.886;12.874;2022-07-03T12:16:18;101387.47;;;39.50;27.50
46954;BME280;32707;43.886;12.874;2022-07-03T12:21:12;101401.63;;;39.37;27.08
46954;BME280;32707;43.886;12.874;2022-07-03T12:23:52;101381.84;;;39.11;27.30
46954;BME280;32707;43.886;12.874;2022-07-03T12:26:32;101387.00;;;39.01;27.84
46954;BME280;32707;43.886;12.874;2022-07-03T12:29:03;101388.44;;;39.26;27.05
46954;BME280;32707;43.886;12.874;2022-07-03T12:31:29;101389.59;;;39.50;26.78
46954;BME280;32707;43.886;12.874;2022-07-03T12:33:56;101385.63;;;39.53;26.35
46954;BME280;32707;43.886;12.874;2022-07-03T12:36:22;101398.09;;;39.48;26.79
46954;BME280;32707;43.886;12.874;2022-07-03T12:39:00;101378.00;;;39.40;26.63
46954;BME280;32707;43.886;12.874;2022-07-03T12:41:30;101382.66;;;39.32;26.63
46954;BME280;32707;43.886;12.874;2022-07-03T12:43:58;101382.84;;;39.08;27.36
46954;BME280;32707;43.886;12.874;2022-07-03T12:46:41;101391.47;;;38.82;27.17
46954;BME280;32707;43.886;12.874;2022-07-03T12:49:13;101382.25;;;38.89;27.48
46954;BME280;32707;43.886;12.874;2022-07-03T12:51:45;101381.66;;;38.85;26.92
46954;BME280;32707;43.886;12.874;2022-07-03T12:54:21;101376.22;;;38.78;27.27
46954;BME280;32707;43.886;12.874;2022-07-03T12:57:11;101387.66;;;38.61;27.49
46954;BME280;32707;43.886;12.874;2022-07-03T13:00:04;101394.72;;;38.54;27.60
46954;BME280;32707;43.886;12.874;2022-07-03T13:02:35;101389.53;;;38.19;28.39
46954;BME280;32707;43.886;12.874;2022-07-03T13:05:15;101391.78;;;38.00;28.73
46954;BME280;32707;43.886;12.874;2022-07-03T13:07:41;101396.97;;;37.81;28.91
46954;BME280;32707;43.886;12.874;2022-07-03T13:10:08;101395.66;;;37.67;29.27
46954;BME280;32707;43.886;12.874;2022-07-03T13:12:34;101390.53;;;37.53;29.21
46954;BME280;32707;43.886;12.874;2022-07-03T13:15:07;101380.19;;;37.43;29.71
46954;BME280;32707;43.886;12.874;2022-07-03T13:20:25;101379.72;;;37.11;30.51
46954;BME280;32707;43.886;12.874;2022-07-03T13:22:53;101385.63;;;37.02;30.70
46954;BME280;32707;43.886;12.874;2022-07-03T13:25:22;101377.22;;;36.94;30.86
46954;BME280;32707;43.886;12.874;2022-07-03T13:27:47;101376.25;;;36.88;31.05
46954;BME280;32707;43.886;12.874;2022-07-03T13:30:14;101380.97;;;36.86;31.23
46954;BME280;32707;43.886;12.874;2022-07-03T13:32:46;101369.03;;;36.74;31.33
46954;BME280;32707;43.886;12.874;2022-07-03T13:35:12;101373.44;;;36.61;31.79
46954;BME280;32707;43.886;12.874;2022-07-03T13:37:37;101374.41;;;36.57;31.74
46954;BME280;32707;43.886;12.874;2022-07-03T13:40:07;101376.38;;;36.51;31.81
46954;BME280;32707;43.886;12.874;2022-07-03T13:42:33;101381.59;;;36.47;31.95
46954;BME280;32707;43.886;12.874;2022-07-03T13:44:59;101376.09;;;36.40;32.02
46954;BME280;32707;43.886;12.874;2022-07-03T13:47:24;101378.66;;;36.47;31.54
46954;BME280;32707;43.886;12.874;2022-07-03T13:49:50;101369.94;;;36.38;31.56
46954;BME280;32707;43.886;12.874;2022-07-03T13:52:17;101377.22;;;36.33;31.59
46954;BME280;32707;43.886;12.874;2022-07-03T13:54:43;101375.31;;;36.21;31.84
46954;BME280;32707;43.886;12.874;2022-07-03T13:57:08;101370.94;;;35.98;31.88
46954;BME280;32707;43.886;12.874;2022-07-03T13:59:34;101365.28;;;35.76;32.18
46954;BME280;32707;43.886;12.874;2022-07-03T14:02:10;101362.50;;;35.54;32.51
46954;BME280;32707;43.886;12.874;2022-07-03T14:04:36;101364.09;;;35.46;32.55
46954;BME280;32707;43.886;12.874;2022-07-03T14:07:01;101365.06;;;35.42;32.68
46954;BME280;32707;43.886;12.874;2022-07-03T14:09:27;101366.50;;;35.38;32.81
46954;BME280;32707;43.886;12.874;2022-07-03T14:11:53;101366.16;;;35.27;33.45
46954;BME280;32707;43.886;12.874;2022-07-03T14:14:19;101362.69;;;35.10;33.29
46954;BME280;32707;43.886;12.874;2022-07-03T14:16:44;101369.81;;;35.09;33.37
46954;BME280;32707;43.886;12.874;2022-07-03T14:19:13;101376.94;;;35.17;33.41
46954;BME280;32707;43.886;12.874;2022-07-03T14:21:38;101364.50;;;35.16;33.90
46954;BME280;32707;43.886;12.874;2022-07-03T14:24:04;101367.38;;;35.07;34.14
46954;BME280;32707;43.886;12.874;2022-07-03T14:26:30;101360.91;;;35.03;33.81
46954;BME280;32707;43.886;12.874;2022-07-03T14:29:14;101371.34;;;34.91;34.00
46954;BME280;32707;43.886;12.874;2022-07-03T14:31:58;101364.59;;;34.94;34.17
46954;BME280;32707;43.886;12.874;2022-07-03T14:34:49;101358.50;;;35.11;33.51
46954;BME280;32707;43.886;12.874;2022-07-03T14:37:14;101363.50;;;35.01;33.70